createdAt,value
2019-02-15T00:00:53.656Z,3.50
2019-02-15T00:03:21.400Z,3.60
2019-02-15T00:05:49.177Z,3.00
2019-02-15T00:08:16.581Z,3.30
2019-02-15T00:10:44.743Z,3.33
2019-02-15T00:13:15.705Z,3.63
2019-02-15T00:15:44.418Z,3.20
2019-02-15T00:18:32.392Z,3.17
2019-02-15T00:21:10.215Z,3.20
2019-02-15T00:23:38.463Z,2.97
2019-02-15T00:26:06.224Z,2.60
2019-02-15T00:28:33.810Z,3.60
2019-02-15T00:31:01.302Z,3.30
2019-02-15T00:33:29.822Z,3.00
2019-02-15T00:35:57.596Z,3.53
2019-02-15T00:38:25.482Z,3.90
2019-02-15T00:40:52.755Z,3.30
2019-02-15T00:43:22.350Z,3.20
2019-02-15T00:46:07.459Z,3.53
2019-02-15T00:48:36.175Z,2.67
2019-02-15T00:51:41.313Z,2.87
2019-02-15T00:54:45.768Z,3.17
2019-02-15T00:57:42.426Z,3.37
2019-02-15T01:00:41.590Z,3.27
2019-02-15T01:03:28.186Z,3.70
2019-02-15T01:06:14.130Z,3.80
2019-02-15T01:08:51.250Z,3.10
2019-02-15T01:11:28.249Z,3.10
2019-02-15T01:13:55.998Z,3.23
2019-02-15T01:16:23.672Z,2.70
2019-02-15T01:18:51.528Z,3.20
2019-02-15T01:21:22.756Z,3.17
2019-02-15T01:23:50.847Z,3.00
2019-02-15T01:26:29.473Z,3.00
2019-02-15T01:29:16.774Z,3.93
2019-02-15T01:32:13.147Z,3.20
2019-02-15T01:35:04.615Z,3.47
2019-02-15T01:37:54.645Z,2.90
2019-02-15T01:40:37.774Z,3.30
2019-02-15T01:43:23.268Z,3.63
2019-02-15T01:46:10.523Z,3.67
2019-02-15T01:48:38.689Z,3.10
2019-02-15T01:51:06.211Z,3.17
2019-02-15T01:53:34.194Z,3.20
2019-02-15T01:56:02.344Z,2.90
2019-02-15T01:58:29.820Z,3.53
2019-02-15T02:00:57.784Z,2.47
2019-02-15T02:03:25.591Z,3.20
2019-02-15T02:05:54.002Z,3.53
2019-02-15T02:08:24.509Z,3.80
2019-02-15T02:10:52.378Z,3.00
2019-02-15T02:13:20.263Z,2.83
2019-02-15T02:15:48.006Z,3.00
2019-02-15T02:18:15.888Z,3.50
2019-02-15T02:20:44.068Z,3.60
2019-02-15T02:23:12.036Z,3.03
2019-02-15T02:25:40.301Z,3.73
2019-02-15T02:28:07.875Z,3.77
2019-02-15T02:30:39.045Z,3.67
2019-02-15T02:33:06.934Z,2.90
2019-02-15T02:35:34.219Z,2.80
2019-02-15T02:38:01.913Z,3.30
2019-02-15T02:40:29.626Z,3.10
2019-02-15T02:42:57.149Z,3.07
2019-02-15T02:45:25.706Z,2.70
2019-02-15T02:47:53.378Z,2.80
2019-02-15T02:50:21.344Z,3.00
2019-02-15T02:52:48.982Z,3.07
2019-02-15T02:55:16.950Z,3.10
2019-02-15T02:57:44.613Z,4.33
2019-02-15T03:00:12.470Z,3.23
2019-02-15T03:02:40.665Z,3.80
2019-02-15T03:05:09.047Z,3.00
2019-02-15T03:07:37.224Z,3.10
2019-02-15T03:10:04.894Z,2.93
2019-02-15T03:12:32.342Z,2.90
2019-02-15T03:15:00.419Z,2.60
2019-02-15T03:17:28.157Z,3.37
2019-02-15T03:19:55.753Z,3.00
2019-02-15T03:22:24.149Z,3.00
2019-02-15T03:24:52.506Z,3.00
2019-02-15T03:27:20.232Z,3.27
2019-02-15T03:29:47.594Z,2.90
2019-02-15T03:32:15.473Z,3.10
2019-02-15T03:34:42.885Z,2.90
2019-02-15T03:37:33.303Z,2.77
2019-02-15T03:40:05.843Z,2.77
2019-02-15T03:42:33.295Z,2.70
2019-02-15T03:45:00.848Z,3.50
2019-02-15T03:47:28.316Z,3.30
2019-02-15T03:49:56.826Z,3.27
2019-02-15T03:52:24.465Z,2.83
2019-02-15T03:54:52.062Z,2.97
2019-02-15T03:57:19.850Z,2.97
2019-02-15T03:59:47.857Z,3.70
2019-02-15T04:02:15.954Z,3.60
2019-02-15T04:04:43.668Z,2.77
2019-02-15T04:07:11.293Z,2.90
2019-02-15T04:09:39.158Z,3.33
2019-02-15T04:12:07.678Z,2.83
2019-02-15T04:14:35.252Z,2.87
2019-02-15T04:17:02.990Z,3.20
2019-02-15T04:19:31.416Z,3.00
2019-02-15T04:21:59.752Z,3.30
2019-02-15T04:24:27.722Z,3.60
2019-02-15T04:26:55.498Z,2.83
2019-02-15T04:29:23.238Z,3.47
2019-02-15T04:31:50.793Z,3.00
2019-02-15T04:34:18.786Z,3.40
2019-02-15T04:36:46.721Z,2.90
2019-02-15T04:39:14.666Z,2.50
2019-02-15T04:41:42.865Z,3.00
2019-02-15T04:44:10.846Z,2.70
2019-02-15T04:46:41.779Z,2.80
2019-02-15T04:49:09.120Z,3.10
2019-02-15T04:51:36.800Z,2.50
2019-02-15T04:54:04.681Z,3.20
2019-02-15T04:56:33.176Z,2.63
2019-02-15T04:59:00.767Z,3.37
2019-02-15T05:01:28.147Z,3.07
2019-02-15T05:03:55.806Z,3.50
2019-02-15T05:06:23.702Z,3.03
2019-02-15T05:08:52.266Z,2.80
2019-02-15T05:11:19.965Z,2.93
2019-02-15T05:13:47.523Z,3.60
2019-02-15T05:16:15.288Z,2.80
2019-02-15T05:18:45.815Z,2.70
2019-02-15T05:21:13.515Z,2.60
2019-02-15T05:23:41.214Z,3.00
2019-02-15T05:26:09.710Z,2.80
2019-02-15T05:28:37.183Z,2.70
2019-02-15T05:31:04.711Z,2.97
2019-02-15T05:33:32.581Z,2.70
2019-02-15T05:36:01.049Z,2.77
2019-02-15T05:38:28.592Z,2.67
2019-02-15T05:40:56.489Z,2.57
2019-02-15T05:43:24.150Z,2.90
2019-02-15T05:45:52.508Z,3.40
2019-02-15T05:48:20.028Z,3.50
2019-02-15T05:50:48.154Z,3.20
2019-02-15T05:53:15.911Z,3.00
2019-02-15T05:55:43.573Z,3.30
2019-02-15T05:58:11.419Z,3.77
2019-02-15T06:00:39.303Z,2.90
2019-02-15T06:03:06.874Z,2.70
2019-02-15T06:05:34.379Z,3.23
2019-02-15T06:08:02.098Z,3.43
2019-02-15T06:10:30.069Z,3.20
2019-02-15T06:12:57.805Z,3.20
2019-02-15T06:15:25.629Z,2.97
2019-02-15T06:17:54.347Z,3.00
2019-02-15T06:20:22.453Z,2.80
2019-02-15T06:22:50.962Z,9.57
2019-02-15T06:25:19.220Z,37.10
2019-02-15T06:27:46.947Z,19.53
2019-02-15T06:30:15.151Z,11.90
2019-02-15T06:32:43.488Z,9.20
2019-02-15T06:35:11.774Z,6.30
2019-02-15T06:37:40.205Z,5.30
2019-02-15T06:40:07.951Z,4.57
2019-02-15T06:42:36.427Z,4.90
2019-02-15T06:45:04.694Z,4.37
2019-02-15T06:47:32.775Z,3.43
2019-02-15T06:50:00.434Z,3.33
2019-02-15T06:52:28.916Z,17.20
2019-02-15T06:54:57.002Z,17.53
2019-02-15T06:57:24.947Z,11.30
2019-02-15T07:00:12.201Z,7.23
2019-02-15T07:02:56.323Z,4.97
2019-02-15T07:05:26.916Z,3.37
2019-02-15T07:07:55.043Z,3.10
2019-02-15T07:10:23.102Z,3.50
2019-02-15T07:12:51.380Z,3.13
2019-02-15T07:15:19.051Z,2.70
2019-02-15T07:17:47.424Z,3.07
2019-02-15T07:20:15.861Z,3.30
2019-02-15T07:22:45.679Z,2.83
2019-02-15T07:25:13.287Z,2.50
2019-02-15T07:27:40.910Z,2.90
2019-02-15T07:30:15.874Z,2.83
2019-02-15T07:32:43.929Z,3.07
2019-02-15T07:35:12.700Z,3.27
2019-02-15T07:37:40.362Z,2.43
2019-02-15T07:40:17.621Z,3.20
2019-02-15T07:42:46.213Z,3.00
2019-02-15T07:45:17.885Z,2.80
2019-02-15T07:47:46.083Z,3.40
2019-02-15T07:50:14.174Z,2.97
2019-02-15T07:52:41.812Z,3.33
2019-02-15T07:55:10.139Z,3.50
2019-02-15T07:57:38.673Z,2.70
2019-02-15T08:00:09.312Z,2.60
2019-02-15T08:02:37.402Z,3.40
2019-02-15T08:05:06.045Z,2.47
2019-02-15T08:07:33.918Z,2.73
2019-02-15T08:10:02.296Z,2.83
2019-02-15T08:12:30.814Z,3.03
2019-02-15T08:14:58.999Z,2.60
2019-02-15T08:17:27.568Z,3.13
2019-02-15T08:19:55.932Z,3.43
2019-02-15T08:22:23.556Z,3.17
2019-02-15T08:24:57.376Z,3.30
2019-02-15T08:27:25.830Z,2.63
2019-02-15T08:29:54.385Z,2.70
2019-02-15T08:32:22.552Z,2.70
2019-02-15T08:34:50.706Z,3.53
2019-02-15T08:37:18.572Z,3.00
2019-02-15T08:39:46.857Z,3.47
2019-02-15T08:42:14.624Z,3.67
2019-02-15T08:44:42.347Z,3.10
2019-02-15T08:47:09.905Z,2.80
2019-02-15T08:49:37.799Z,2.80
2019-02-15T08:52:07.098Z,3.53
2019-02-15T08:54:34.769Z,15.77
2019-02-15T08:57:02.735Z,11.93
2019-02-15T08:59:30.689Z,8.57
2019-02-15T09:02:05.022Z,7.00
2019-02-15T09:04:34.041Z,5.40
2019-02-15T09:07:02.242Z,4.50
2019-02-15T09:09:30.306Z,4.20
2019-02-15T09:11:58.539Z,3.30
2019-02-15T09:14:26.803Z,3.53
2019-02-15T09:16:54.728Z,3.40
2019-02-15T09:19:23.255Z,3.23
2019-02-15T09:21:50.647Z,3.37
2019-02-15T09:24:18.784Z,3.47
2019-02-15T09:26:47.073Z,3.57
2019-02-15T09:29:15.491Z,3.30
2019-02-15T09:31:43.938Z,3.50
2019-02-15T09:34:12.200Z,3.30
2019-02-15T09:36:39.897Z,3.60
2019-02-15T09:39:08.435Z,3.10
2019-02-15T09:41:36.515Z,4.00
2019-02-15T09:44:07.155Z,4.00
2019-02-15T09:46:34.897Z,3.53
2019-02-15T09:49:03.610Z,2.93
2019-02-15T09:51:31.781Z,3.60
2019-02-15T09:53:59.630Z,4.10
2019-02-15T09:56:29.048Z,3.50
2019-02-15T09:58:57.427Z,3.30
2019-02-15T10:01:25.587Z,3.33
2019-02-15T10:03:55.207Z,3.47
2019-02-15T10:06:23.199Z,3.40
2019-02-15T10:08:51.863Z,3.50
2019-02-15T10:11:19.968Z,3.43
2019-02-15T10:13:48.082Z,3.57
2019-02-15T10:16:16.604Z,3.17
2019-02-15T10:18:44.808Z,3.33
2019-02-15T10:21:14.481Z,3.63
2019-02-15T10:23:43.263Z,3.40
2019-02-15T10:26:11.145Z,3.23
2019-02-15T10:28:39.588Z,7.73
2019-02-15T10:31:07.565Z,12.07
2019-02-15T10:33:35.611Z,10.20
2019-02-15T10:36:05.434Z,6.57
2019-02-15T10:38:34.475Z,5.73
2019-02-15T10:41:03.027Z,5.23
2019-02-15T10:43:31.209Z,5.37
2019-02-15T10:45:59.284Z,4.80
2019-02-15T10:48:27.139Z,3.93
2019-02-15T10:50:55.532Z,3.73
2019-02-15T10:53:23.365Z,3.10
2019-02-15T10:55:51.054Z,3.87
2019-02-15T10:58:19.335Z,3.60
2019-02-15T11:00:47.117Z,3.20
2019-02-15T11:03:15.514Z,3.43
2019-02-15T11:05:48.039Z,3.10
2019-02-15T11:08:16.270Z,2.73
2019-02-15T11:10:47.623Z,3.17
2019-02-15T11:13:15.598Z,2.60
2019-02-15T11:15:45.265Z,3.20
2019-02-15T11:18:13.769Z,2.00
2019-02-15T11:20:43.741Z,2.40
2019-02-15T11:23:12.451Z,3.03
2019-02-15T11:25:40.378Z,1.80
2019-02-15T11:28:08.658Z,3.07
2019-02-15T11:30:36.994Z,9.80
2019-02-15T11:33:05.080Z,11.63
2019-02-15T11:35:33.407Z,9.20
2019-02-15T11:38:01.493Z,7.47
2019-02-15T11:40:36.394Z,6.87
2019-02-15T11:43:04.780Z,5.00
2019-02-15T11:45:33.474Z,5.00
2019-02-15T11:48:01.986Z,4.43
2019-02-15T11:50:30.052Z,3.60
2019-02-15T11:52:58.240Z,3.80
2019-02-15T11:55:26.162Z,3.40
2019-02-15T11:57:54.191Z,3.17
2019-02-15T12:00:27.546Z,2.90
2019-02-15T12:02:55.628Z,2.60
2019-02-15T12:05:23.857Z,3.10
2019-02-15T12:07:54.875Z,3.10
2019-02-15T12:10:22.690Z,2.77
2019-02-15T12:12:51.677Z,2.90
2019-02-15T12:15:21.189Z,3.00
2019-02-15T12:17:49.053Z,2.87
2019-02-15T12:20:18.067Z,3.33
2019-02-15T12:22:46.192Z,3.23
2019-02-15T12:25:14.815Z,2.80
2019-02-15T12:27:45.215Z,2.37
2019-02-15T12:30:13.929Z,2.57
2019-02-15T12:32:42.605Z,2.37
2019-02-15T12:35:11.739Z,2.90
2019-02-15T12:37:39.473Z,2.60
2019-02-15T12:40:07.344Z,2.67
2019-02-15T12:42:35.269Z,2.40
2019-02-15T12:45:03.282Z,2.87
2019-02-15T12:47:32.464Z,2.37
2019-02-15T12:50:17.986Z,2.83
2019-02-15T12:52:46.353Z,3.13
2019-02-15T12:55:14.347Z,2.80
2019-02-15T12:57:42.338Z,2.47
2019-02-15T13:00:11.599Z,2.40
2019-02-15T13:02:39.552Z,2.40
2019-02-15T13:05:09.062Z,2.43
2019-02-15T13:07:39.144Z,2.53
2019-02-15T13:10:08.523Z,2.07
2019-02-15T13:12:36.414Z,2.57
2019-02-15T13:15:04.687Z,2.57
2019-02-15T13:17:32.978Z,3.27
2019-02-15T13:20:00.530Z,2.17
2019-02-15T13:22:28.871Z,2.37
2019-02-15T13:24:56.663Z,3.00
2019-02-15T13:27:24.736Z,2.53
2019-02-15T13:29:52.801Z,2.70
2019-02-15T13:32:21.418Z,2.47
2019-02-15T13:34:49.677Z,2.47
2019-02-15T13:37:18.193Z,2.20
2019-02-15T13:39:46.272Z,3.10
2019-02-15T13:42:14.046Z,2.40
2019-02-15T13:44:41.342Z,2.40
2019-02-15T13:47:09.744Z,2.37
2019-02-15T13:49:37.282Z,2.23
2019-02-15T13:52:10.874Z,2.40
2019-02-15T13:54:38.867Z,2.70
2019-02-15T13:57:07.535Z,2.47
2019-02-15T13:59:35.818Z,2.60
2019-02-15T14:02:05.018Z,2.33
2019-02-15T14:04:32.972Z,2.37
2019-02-15T14:07:00.570Z,2.30
2019-02-15T14:09:28.398Z,2.40
2019-02-15T14:11:56.204Z,2.00
2019-02-15T14:14:24.235Z,2.30
2019-02-15T14:16:52.053Z,2.00
2019-02-15T14:19:19.824Z,2.30
2019-02-15T14:21:47.466Z,2.40
2019-02-15T14:24:15.302Z,2.90
2019-02-15T14:26:43.585Z,2.60
2019-02-15T14:29:11.198Z,2.53
2019-02-15T14:31:39.031Z,2.60
2019-02-15T14:34:06.736Z,2.10
2019-02-15T14:36:34.933Z,2.60
2019-02-15T14:39:05.744Z,2.60
2019-02-15T14:41:33.836Z,2.30
2019-02-15T14:44:01.718Z,2.30
2019-02-15T14:46:29.138Z,2.20
2019-02-15T14:48:57.116Z,2.27
2019-02-15T14:51:25.327Z,2.70
2019-02-15T14:53:53.718Z,2.40
2019-02-15T14:56:21.528Z,1.80
2019-02-15T14:58:49.417Z,2.10
2019-02-15T15:01:16.873Z,2.93
2019-02-15T15:03:45.492Z,2.10
2019-02-15T15:06:13.282Z,2.80
2019-02-15T15:08:41.275Z,2.20
2019-02-15T15:11:10.720Z,1.70
2019-02-15T15:13:38.392Z,1.77
2019-02-15T15:16:06.611Z,2.40
2019-02-15T15:18:34.195Z,2.07
2019-02-15T15:21:01.601Z,2.07
2019-02-15T15:23:30.310Z,2.13
2019-02-15T15:25:57.633Z,2.00
2019-02-15T15:28:24.985Z,2.27
2019-02-15T15:30:52.849Z,2.10
2019-02-15T15:33:20.199Z,1.77
2019-02-15T15:35:47.901Z,1.63
2019-02-15T15:38:15.786Z,1.60
2019-02-15T15:40:43.754Z,2.30
2019-02-15T15:43:11.399Z,1.70
2019-02-15T15:45:39.368Z,2.00
2019-02-15T15:48:10.619Z,1.90
2019-02-15T15:50:40.129Z,1.60
2019-02-15T15:53:08.004Z,1.80
2019-02-15T15:55:35.475Z,1.40
2019-02-15T15:58:03.858Z,1.70
2019-02-15T16:00:38.758Z,1.10
2019-02-15T16:03:01.697Z,1.70
2019-02-15T16:05:29.597Z,1.80
2019-02-15T16:07:57.484Z,1.30
2019-02-15T16:10:25.071Z,2.13
2019-02-15T16:12:53.202Z,2.20
2019-02-15T16:15:21.169Z,2.80
2019-02-15T16:17:48.758Z,2.80
2019-02-15T16:20:17.205Z,2.27
2019-02-15T16:22:45.075Z,2.47
2019-02-15T16:25:12.942Z,2.17
2019-02-15T16:27:43.324Z,1.77
2019-02-15T16:30:11.254Z,1.70
2019-02-15T16:32:39.679Z,1.90
2019-02-15T16:35:07.361Z,1.30
2019-02-15T16:37:35.391Z,1.60
2019-02-15T16:40:03.928Z,1.40
2019-02-15T16:42:31.919Z,1.80
2019-02-15T16:45:00.098Z,2.10
2019-02-15T16:47:28.382Z,1.53
2019-02-15T16:49:56.116Z,1.57
2019-02-15T16:52:25.531Z,2.03
2019-02-15T16:54:53.706Z,2.87
2019-02-15T16:57:21.431Z,2.20
2019-02-15T16:59:49.402Z,3.53
2019-02-15T17:02:17.082Z,4.33
2019-02-15T17:04:45.087Z,5.30
2019-02-15T17:07:13.153Z,5.60
2019-02-15T17:09:41.921Z,5.50
2019-02-15T17:12:10.137Z,4.70
2019-02-15T17:14:38.371Z,5.43
2019-02-15T17:17:06.232Z,4.30
2019-02-15T17:19:34.189Z,4.90
2019-02-15T17:22:02.301Z,5.03
2019-02-15T17:24:30.298Z,4.60
2019-02-15T17:26:58.480Z,4.03
2019-02-15T17:29:25.854Z,4.10
2019-02-15T17:31:54.252Z,3.47
2019-02-15T17:34:21.873Z,3.77
2019-02-15T17:36:49.381Z,4.30
2019-02-15T17:39:17.150Z,4.67
2019-02-15T17:41:45.130Z,4.70
2019-02-15T17:44:12.684Z,4.43
2019-02-15T17:46:41.510Z,5.50
2019-02-15T17:49:09.514Z,5.63
2019-02-15T17:51:37.094Z,4.53
2019-02-15T17:54:08.013Z,4.33
2019-02-15T17:56:36.012Z,5.20
2019-02-15T17:59:04.710Z,5.77
2019-02-15T18:01:33.817Z,5.80
2019-02-15T18:04:01.321Z,4.83
2019-02-15T18:06:29.579Z,5.17
2019-02-15T18:08:57.040Z,5.60
2019-02-15T18:11:24.796Z,6.00
2019-02-15T18:13:52.537Z,5.63
2019-02-15T18:16:20.029Z,4.83
2019-02-15T18:18:48.076Z,4.37
2019-02-15T18:21:15.785Z,3.97
2019-02-15T18:23:44.117Z,2.90
2019-02-15T18:26:12.448Z,3.00
2019-02-15T18:28:40.376Z,2.93
2019-02-15T18:31:07.901Z,2.10
2019-02-15T18:33:38.185Z,2.50
2019-02-15T18:36:05.747Z,2.40
2019-02-15T18:38:33.730Z,1.90
2019-02-15T18:41:01.271Z,1.83
2019-02-15T18:43:28.725Z,2.27
2019-02-15T18:45:56.380Z,2.23
2019-02-15T18:48:23.958Z,1.80
2019-02-15T18:50:51.637Z,2.50
2019-02-15T18:53:19.270Z,2.10
2019-02-15T18:55:47.226Z,2.17
2019-02-15T18:58:15.093Z,1.80
2019-02-15T19:00:42.766Z,2.40
2019-02-15T19:03:11.695Z,2.40
2019-02-15T19:05:41.273Z,2.50
2019-02-15T19:08:09.007Z,1.77
2019-02-15T19:10:37.100Z,2.17
2019-02-15T19:13:05.049Z,2.37
2019-02-15T19:15:33.565Z,2.10
2019-02-15T19:18:01.185Z,2.33
2019-02-15T19:20:29.851Z,2.57
2019-02-15T19:22:58.674Z,11.50
2019-02-15T19:25:26.250Z,10.03
2019-02-15T19:27:53.798Z,7.13
2019-02-15T19:30:22.582Z,5.03
2019-02-15T19:32:50.713Z,4.10
2019-02-15T19:35:18.604Z,3.97
2019-02-15T19:37:46.716Z,3.13
2019-02-15T19:40:14.963Z,2.40
2019-02-15T19:42:44.603Z,2.90
2019-02-15T19:45:12.288Z,2.57
2019-02-15T19:47:39.759Z,2.77
2019-02-15T19:50:11.651Z,2.60
2019-02-15T19:52:39.558Z,2.77
2019-02-15T19:55:08.647Z,2.47
2019-02-15T19:57:36.606Z,2.30
2019-02-15T20:00:06.198Z,2.60
2019-02-15T20:02:34.281Z,2.50
2019-02-15T20:05:01.734Z,2.50
2019-02-15T20:07:29.321Z,2.40
2019-02-15T20:09:56.916Z,2.67
2019-02-15T20:12:24.943Z,2.10
2019-02-15T20:14:53.083Z,2.30
2019-02-15T20:17:20.896Z,2.47
2019-02-15T20:19:50.867Z,2.37
2019-02-15T20:22:18.183Z,2.77
2019-02-15T20:24:45.955Z,2.47
2019-02-15T20:27:14.154Z,2.60
2019-02-15T20:29:49.335Z,2.37
2019-02-15T20:32:15.267Z,2.60
2019-02-15T20:34:45.278Z,6.50
2019-02-15T20:37:13.006Z,23.53
2019-02-15T20:39:40.352Z,14.10
2019-02-15T20:42:08.086Z,9.30
2019-02-15T20:44:35.985Z,6.50
2019-02-15T20:47:03.471Z,4.67
2019-02-15T20:49:31.102Z,3.50
2019-02-15T20:51:59.438Z,3.10
2019-02-15T20:54:27.202Z,3.33
2019-02-15T20:56:54.963Z,2.83
2019-02-15T20:59:22.477Z,2.83
2019-02-15T21:01:50.076Z,3.33
2019-02-15T21:04:17.900Z,2.83
2019-02-15T21:06:46.061Z,2.23
2019-02-15T21:09:14.179Z,3.43
2019-02-15T21:11:42.006Z,2.80
2019-02-15T21:14:09.854Z,3.00
2019-02-15T21:16:37.372Z,3.10
2019-02-15T21:19:04.803Z,3.23
2019-02-15T21:21:32.782Z,3.50
2019-02-15T21:24:01.360Z,2.97
2019-02-15T21:26:29.685Z,3.20
2019-02-15T21:28:57.689Z,3.50
2019-02-15T21:31:25.431Z,3.10
2019-02-15T21:33:53.294Z,3.00
2019-02-15T21:36:22.167Z,3.03
2019-02-15T21:38:49.905Z,3.33
2019-02-15T21:41:17.769Z,2.73
2019-02-15T21:43:45.575Z,3.10
2019-02-15T21:46:13.500Z,3.10
2019-02-15T21:48:41.440Z,2.53
2019-02-15T21:51:09.469Z,3.47
2019-02-15T21:53:37.956Z,3.20
2019-02-15T21:56:05.505Z,3.20
2019-02-15T21:58:33.181Z,3.30
2019-02-15T22:01:01.538Z,3.50
2019-02-15T22:03:30.616Z,3.80
2019-02-15T22:05:58.607Z,3.60
2019-02-15T22:08:26.391Z,3.23
2019-02-15T22:10:54.608Z,3.60
2019-02-15T22:13:22.829Z,3.50
2019-02-15T22:15:50.631Z,3.60
2019-02-15T22:18:18.262Z,3.93
2019-02-15T22:20:46.265Z,3.30
2019-02-15T22:23:14.162Z,4.30
2019-02-15T22:25:42.754Z,4.13
2019-02-15T22:28:11.341Z,3.33
2019-02-15T22:30:39.657Z,4.00
2019-02-15T22:33:07.267Z,4.10
2019-02-15T22:35:35.395Z,4.33
2019-02-15T22:38:03.337Z,4.10
2019-02-15T22:40:33.073Z,3.53
2019-02-15T22:43:04.005Z,3.57
2019-02-15T22:45:33.009Z,3.73
2019-02-15T22:48:01.413Z,3.43
2019-02-15T22:50:35.626Z,3.90
2019-02-15T22:52:59.450Z,3.90
2019-02-15T22:55:26.680Z,3.63
2019-02-15T22:57:54.415Z,3.90
2019-02-15T23:00:30.639Z,4.13
2019-02-15T23:02:58.910Z,3.57
2019-02-15T23:05:26.802Z,4.50
2019-02-15T23:07:54.534Z,3.80
2019-02-15T23:10:22.621Z,3.40
2019-02-15T23:12:49.993Z,3.70
2019-02-15T23:15:17.632Z,3.60
2019-02-15T23:17:45.191Z,4.10
2019-02-15T23:20:13.377Z,4.50
2019-02-15T23:22:41.053Z,4.10
2019-02-15T23:25:08.725Z,3.10
2019-02-15T23:27:37.307Z,4.10
2019-02-15T23:30:05.143Z,4.13
2019-02-15T23:32:32.942Z,3.60
2019-02-15T23:35:00.389Z,4.57
2019-02-15T23:37:28.656Z,3.80
2019-02-15T23:39:56.319Z,3.50
2019-02-15T23:42:24.405Z,4.57
2019-02-15T23:44:52.592Z,3.50
2019-02-15T23:47:20.165Z,4.40
2019-02-15T23:49:48.025Z,3.30
2019-02-15T23:52:15.667Z,4.47
2019-02-15T23:54:43.055Z,3.70
2019-02-15T23:57:11.320Z,3.90
2019-02-15T23:59:38.987Z,3.67
